Time;durP1;ratioP1;P1;durP2;ratioP2;P2;SDS_P1;SDS_P2;PMS_P1;PMS_P2;Temp;Humidity;BMP_temperature;BMP_pressure;BME280_temperature;BME280_humidity;BME280_pressure;Samples;Min_cycle;Max_cycle;Signal;HPM_P1;HPM_P2
2023/03/31 00:02:20;;;;;;;9.27;8.67;;;13.90;28.50;;;;;;5030519;28;20180;-75
2023/03/31 00:04:51;;;;;;;9.23;8.73;;;13.90;28.60;;;;;;5031827;28;20196;-75
2023/03/31 00:07:20;;;;;;;8.20;7.90;;;13.90;28.70;;;;;;5032140;28;20921;-75
2023/03/31 00:09:47;;;;;;;9.00;8.43;;;13.90;28.30;;;;;;5031972;28;20781;-75
2023/03/31 00:12:14;;;;;;;9.20;8.80;;;13.80;27.70;;;;;;5021613;28;20479;-75
2023/03/31 00:14:40;;;;;;;8.80;8.30;;;13.80;28.50;;;;;;5011680;28;20432;-76
2023/03/31 00:17:06;;;;;;;9.70;9.00;;;13.70;27.80;;;;;;5020480;28;20937;-77
2023/03/31 00:19:32;;;;;;;9.50;8.80;;;13.60;27.80;;;;;;5028032;28;20181;-76
2023/03/31 00:22:01;;;;;;;9.83;9.00;;;13.50;27.90;;;;;;5031157;28;20407;-76
2023/03/31 00:24:31;;;;;;;9.27;8.77;;;13.50;28.30;;;;;;5031760;28;20987;-76
2023/03/31 00:27:01;;;;;;;9.93;9.30;;;13.40;28.40;;;;;;5029834;28;20466;-76
2023/03/31 00:29:27;;;;;;;9.30;8.93;;;13.40;28.20;;;;;;5029420;28;20481;-76
2023/03/31 00:31:54;;;;;;;9.00;8.40;;;13.40;28.70;;;;;;5031004;28;20459;-76
2023/03/31 00:34:19;;;;;;;10.40;9.77;;;13.40;28.10;;;;;;5031770;28;20386;-77
2023/03/31 00:36:46;;;;;;;9.30;8.70;;;13.40;28.50;;;;;;5031779;28;20917;-76
2023/03/31 00:39:17;;;;;;;9.60;9.10;;;13.40;28.30;;;;;;5027931;28;20179;-76
2023/03/31 00:41:44;;;;;;;10.00;9.50;;;13.30;28.40;;;;;;5011380;28;20881;-76
2023/03/31 00:44:21;;;;;;;9.67;9.00;;;13.30;28.60;;;;;;5016178;28;20435;-76
2023/03/31 00:46:52;;;;;;;9.70;9.20;;;13.30;28.50;;;;;;5027007;28;20444;-76
2023/03/31 00:49:44;;;;;;;9.60;9.10;;;13.40;28.50;;;;;;5025577;28;20442;-76
2023/03/31 00:52:21;;;;;;;10.87;9.97;;;13.40;28.40;;;;;;5012221;28;20522;-76
2023/03/31 00:54:51;;;;;;;9.67;9.13;;;13.40;28.40;;;;;;5032446;28;20530;-76
2023/03/31 00:57:17;;;;;;;10.27;9.57;;;13.30;28.20;;;;;;5035061;28;20403;-76
2023/03/31 00:59:47;;;;;;;10.23;9.50;;;13.30;28.60;;;;;;5035416;28;20943;-75
2023/03/31 01:02:14;;;;;;;9.53;9.07;;;13.30;28.50;;;;;;5035761;28;20308;-76
2023/03/31 01:04:49;;;;;;;9.57;9.07;;;13.30;28.40;;;;;;5035737;28;20439;-76
2023/03/31 01:07:22;;;;;;;9.50;8.93;;;13.30;28.20;;;;;;5025039;28;20438;-76
2023/03/31 01:10:44;;;;;;;10.53;9.43;;;13.30;28.40;;;;;;5016911;28;20988;-76
2023/03/31 01:13:12;;;;;;;9.40;8.90;;;13.30;28.40;;;;;;5028700;28;20467;-75
2023/03/31 01:15:38;;;;;;;10.53;9.70;;;13.30;28.40;;;;;;5035056;28;20408;-76
2023/03/31 01:18:09;;;;;;;10.13;9.20;;;13.30;28.20;;;;;;5035651;28;20502;-76
2023/03/31 01:21:09;;;;;;;9.80;9.10;;;13.30;28.20;;;;;;5035226;28;20481;-75
2023/03/31 01:24:15;;;;;;;10.33;9.67;;;13.40;28.20;;;;;;5030833;28;20434;-76
2023/03/31 01:26:44;;;;;;;9.50;8.90;;;13.40;27.90;;;;;;5034539;28;20412;-76
2023/03/31 01:29:35;;;;;;;9.80;9.30;;;13.50;28.60;;;;;;5034958;28;20403;-76
2023/03/31 01:32:40;;;;;;;10.53;9.80;;;13.60;28.60;;;;;;5034330;28;20455;-76
2023/03/31 01:35:18;;;;;;;10.97;10.17;;;13.80;28.50;;;;;;5025683;28;20445;-76
2023/03/31 01:38:14;;;;;;;9.77;9.23;;;13.80;28.00;;;;;;5034267;28;20763;-75
2023/03/31 01:41:08;;;;;;;9.70;9.10;;;13.70;27.80;;;;;;5033132;28;20519;-75
2023/03/31 01:43:59;;;;;;;9.93;9.33;;;13.60;28.20;;;;;;5034048;28;20509;-75
2023/03/31 01:46:29;;;;;;;10.00;9.50;;;13.70;28.40;;;;;;5034552;28;20498;-76
2023/03/31 01:49:07;;;;;;;11.37;10.77;;;13.80;27.90;;;;;;5033925;28;20439;-75
2023/03/31 01:51:35;;;;;;;10.50;10.00;;;13.70;27.70;;;;;;5032673;28;20490;-76
2023/03/31 01:54:25;;;;;;;10.90;10.30;;;13.50;27.30;;;;;;5026207;28;20438;-75
2023/03/31 01:57:02;;;;;;;9.70;9.20;;;13.30;28.40;;;;;;5033679;28;20929;-76
2023/03/31 01:59:41;;;;;;;10.50;9.80;;;13.30;28.90;;;;;;5034021;28;20445;-76
2023/03/31 02:02:19;;;;;;;10.30;9.80;;;13.20;29.10;;;;;;5033108;28;20407;-76
2023/03/31 02:04:59;;;;;;;11.03;10.17;;;13.20;29.20;;;;;;5033881;28;20923;-76
2023/03/31 02:07:40;;;;;;;9.73;9.33;;;13.10;30.40;;;;;;5032259;28;20546;-76
2023/03/31 02:10:09;;;;;;;10.60;9.87;;;13.00;30.40;;;;;;5033807;28;20473;-76
2023/03/31 02:12:38;;;;;;;10.53;9.93;;;12.90;31.10;;;;;;5032959;28;20558;-76
2023/03/31 02:15:08;;;;;;;11.47;10.77;;;12.90;31.40;;;;;;5032373;28;20438;-76
2023/03/31 02:17:38;;;;;;;10.73;10.10;;;12.90;32.20;;;;;;5032367;28;20430;-76
2023/03/31 02:20:10;;;;;;;9.90;9.57;;;12.90;31.90;;;;;;5024061;28;21020;-76
2023/03/31 02:22:41;;;;;;;10.50;10.00;;;12.90;33.00;;;;;;5021687;28;20929;-76
2023/03/31 02:25:11;;;;;;;10.67;9.97;;;12.80;33.00;;;;;;5024412;28;20435;-76
2023/03/31 02:27:41;;;;;;;10.90;10.27;;;12.90;33.60;;;;;;5022890;28;20429;-77
2023/03/31 02:30:08;;;;;;;12.53;11.77;;;12.90;34.10;;;;;;5023960;28;20820;-77
2023/03/31 02:32:40;;;;;;;11.17;10.57;;;12.90;34.00;;;;;;5024358;28;20463;-77
2023/03/31 02:35:11;;;;;;;11.60;10.90;;;12.80;34.00;;;;;;5019859;28;20448;-77
2023/03/31 02:37:38;;;;;;;11.27;10.40;;;12.70;35.20;;;;;;5021291;28;20435;-77
2023/03/31 02:40:11;;;;;;;10.53;9.83;;;12.70;35.10;;;;;;5024439;28;20598;-75
2023/03/31 02:42:38;;;;;;;10.03;9.47;;;12.70;35.10;;;;;;5023743;28;20760;-75
2023/03/31 02:45:06;;;;;;;11.27;10.57;;;12.80;34.90;;;;;;5022499;28;20450;-77
2023/03/31 02:47:33;;;;;;;11.40;10.70;;;12.80;35.10;;;;;;5023415;28;20441;-75
2023/03/31 02:50:00;;;;;;;11.23;10.67;;;12.80;34.10;;;;;;5022919;28;20411;-76
2023/03/31 02:53:01;;;;;;;10.93;10.43;;;12.90;34.00;;;;;;5022048;28;20470;-76
2023/03/31 02:55:59;;;;;;;11.50;10.70;;;12.90;34.10;;;;;;5020779;28;20437;-76
2023/03/31 02:59:05;;;;;;;10.93;10.33;;;12.90;34.00;;;;;;5019466;28;20419;-76
2023/03/31 03:01:49;;;;;;;11.00;10.30;;;12.80;34.00;;;;;;5021520;28;20793;-76
2023/03/31 03:04:32;;;;;;;11.17;10.47;;;12.70;33.90;;;;;;5024527;28;20586;-76
2023/03/31 03:07:16;;;;;;;11.23;10.53;;;12.70;34.80;;;;;;5023162;28;20545;-76
2023/03/31 03:10:07;;;;;;;10.97;10.27;;;12.80;35.00;;;;;;5022431;28;20465;-76
2023/03/31 03:12:41;;;;;;;12.07;11.40;;;12.90;35.40;;;;;;5022812;28;20471;-76
2023/03/31 03:15:20;;;;;;;11.97;11.43;;;13.00;35.30;;;;;;5016028;28;20438;-76
2023/03/31 03:17:48;;;;;;;11.90;11.30;;;13.10;34.90;;;;;;5022156;28;20447;-76
2023/03/31 03:20:17;;;;;;;11.73;11.10;;;13.10;34.20;;;;;;5024033;28;20447;-76
2023/03/31 03:22:43;;;;;;;12.20;11.50;;;13.10;34.20;;;;;;5022548;28;20925;-76
2023/03/31 03:25:11;;;;;;;12.03;11.20;;;13.00;34.10;;;;;;5023629;28;20492;-76
2023/03/31 03:27:38;;;;;;;11.00;10.50;;;12.90;34.40;;;;;;5022686;28;20199;-75
2023/03/31 03:30:06;;;;;;;11.80;11.30;;;12.90;34.70;;;;;;5020099;28;20420;-76
2023/03/31 03:32:32;;;;;;;13.33;12.53;;;12.80;35.20;;;;;;5024355;28;20999;-76
2023/03/31 03:35:02;;;;;;;12.20;11.60;;;12.60;35.50;;;;;;5023643;28;20436;-76
2023/03/31 03:37:28;;;;;;;10.80;10.40;;;12.50;36.30;;;;;;5023844;28;20420;-76
2023/03/31 03:39:54;;;;;;;11.93;10.93;;;12.50;36.70;;;;;;5024302;28;20415;-76
2023/03/31 03:42:19;;;;;;;11.17;10.57;;;12.40;36.80;;;;;;5025581;28;20540;-76
2023/03/31 03:44:45;;;;;;;11.67;11.07;;;12.30;37.40;;;;;;5024277;28;20189;-77
2023/03/31 03:47:10;;;;;;;11.90;11.20;;;12.20;37.30;;;;;;5024909;28;20564;-76
2023/03/31 03:49:36;;;;;;;12.50;11.70;;;12.30;37.40;;;;;;5024374;28;20172;-76
2023/03/31 03:52:02;;;;;;;12.53;11.73;;;12.30;37.30;;;;;;5026097;28;20236;-76
2023/03/31 03:54:28;;;;;;;11.73;11.23;;;12.30;37.10;;;;;;5025633;28;20283;-76
2023/03/31 03:56:53;;;;;;;12.23;11.50;;;12.20;37.30;;;;;;5028372;28;20541;-76
2023/03/31 03:59:19;;;;;;;12.47;11.70;;;12.10;37.70;;;;;;5028063;28;20188;-76
2023/03/31 04:01:44;;;;;;;11.77;10.90;;;12.20;37.70;;;;;;5027261;28;20180;-76
2023/03/31 04:04:10;;;;;;;12.37;11.43;;;12.20;37.50;;;;;;5030142;28;20194;-76
2023/03/31 04:06:36;;;;;;;12.27;11.53;;;12.10;37.70;;;;;;5030425;28;20547;-76
2023/03/31 04:09:02;;;;;;;11.87;11.27;;;12.10;37.60;;;;;;5031079;28;20173;-76
2023/03/31 04:11:28;;;;;;;12.83;12.03;;;12.00;37.70;;;;;;5030394;28;20218;-76
2023/03/31 04:13:54;;;;;;;12.40;11.80;;;11.90;38.10;;;;;;5031708;28;20827;-76
2023/03/31 04:16:21;;;;;;;12.07;11.47;;;11.90;38.40;;;;;;5030335;28;20416;-76
2023/03/31 04:18:47;;;;;;;13.40;12.80;;;11.90;38.50;;;;;;5028998;28;20270;-76
2023/03/31 04:21:21;;;;;;;11.90;11.03;;;11.80;39.00;;;;;;5031179;28;20408;-76
2023/03/31 04:23:47;;;;;;;11.90;11.17;;;11.70;39.50;;;;;;5029292;28;20212;-76
2023/03/31 04:26:14;;;;;;;13.23;12.60;;;11.70;40.10;;;;;;5031277;28;20426;-76
2023/03/31 04:28:41;;;;;;;12.70;11.93;;;11.60;40.50;;;;;;5030872;28;20794;-76
2023/03/31 04:31:23;;;;;;;12.90;11.90;;;11.60;41.00;;;;;;5030353;28;20493;-76
2023/03/31 04:33:50;;;;;;;13.83;12.77;;;11.60;40.50;;;;;;5029437;28;20473;-78
2023/03/31 04:36:18;;;;;;;12.73;12.03;;;11.70;40.20;;;;;;5035137;28;20450;-77
2023/03/31 04:38:55;;;;;;;12.63;11.90;;;11.70;39.10;;;;;;5035398;28;20442;-78
2023/03/31 04:41:21;;;;;;;12.47;11.87;;;11.70;39.80;;;;;;5036048;28;20803;-78
2023/03/31 04:43:47;;;;;;;12.20;11.40;;;11.70;39.10;;;;;;5049777;28;20480;-80
2023/03/31 04:46:13;;;;;;;11.57;11.07;;;11.80;39.60;;;;;;5055436;28;20443;-78
2023/03/31 04:48:38;;;;;;;12.03;11.43;;;11.90;39.40;;;;;;5033647;28;20181;-77
2023/03/31 04:51:05;;;;;;;12.90;12.00;;;11.80;39.80;;;;;;5030391;28;20409;-77
2023/03/31 04:53:30;;;;;;;12.87;12.07;;;11.80;40.20;;;;;;5031623;28;20224;-77
2023/03/31 04:55:56;;;;;;;12.10;11.40;;;11.80;39.80;;;;;;5032927;28;20424;-76
2023/03/31 04:58:22;;;;;;;22.43;12.53;;;11.80;40.40;;;;;;5032473;28;20169;-77
2023/03/31 05:00:48;;;;;;;13.67;12.77;;;11.80;40.50;;;;;;5032155;28;20426;-78
2023/03/31 05:03:13;;;;;;;11.60;11.00;;;11.70;41.00;;;;;;5031117;28;20259;-78
2023/03/31 05:05:39;;;;;;;12.70;12.00;;;11.70;40.70;;;;;;5032081;28;20268;-77
2023/03/31 05:08:04;;;;;;;12.93;12.03;;;11.60;41.10;;;;;;5030834;28;20192;-77
2023/03/31 05:10:30;;;;;;;12.43;11.60;;;11.60;41.30;;;;;;5031388;28;20204;-77
2023/03/31 05:12:56;;;;;;;12.13;11.43;;;11.70;40.70;;;;;;5028580;28;20301;-77
2023/03/31 05:15:23;;;;;;;12.33;11.63;;;11.70;42.00;;;;;;5030925;28;20176;-77
2023/03/31 05:17:49;;;;;;;13.27;11.97;;;11.80;41.70;;;;;;5031434;28;20168;-77
2023/03/31 05:20:15;;;;;;;11.40;10.63;;;11.70;42.10;;;;;;5031342;28;20419;-77
2023/03/31 05:22:41;;;;;;;12.50;11.70;;;11.70;42.90;;;;;;5031099;28;20820;-77
2023/03/31 05:25:08;;;;;;;11.43;10.60;;;11.60;43.10;;;;;;5031436;28;20431;-77
2023/03/31 05:27:35;;;;;;;14.40;13.20;;;11.60;43.20;;;;;;5031271;28;20639;-78
2023/03/31 05:30:01;;;;;;;12.27;11.37;;;11.60;44.30;;;;;;5031260;28;20498;-78
2023/03/31 05:32:28;;;;;;;12.67;11.70;;;11.60;44.80;;;;;;5030923;28;20541;-77
2023/03/31 05:34:56;;;;;;;12.67;11.87;;;11.60;46.00;;;;;;5030351;28;20454;-77
2023/03/31 05:37:25;;;;;;;13.07;12.27;;;11.60;46.70;;;;;;5033930;28;20484;-77
2023/03/31 05:39:51;;;;;;;12.70;11.80;;;11.60;46.80;;;;;;5033399;28;20440;-77
2023/03/31 05:42:16;;;;;;;12.90;11.80;;;11.50;48.90;;;;;;5033392;28;20838;-78
2023/03/31 05:44:42;;;;;;;12.77;12.00;;;11.50;48.40;;;;;;5034925;28;20709;-77
2023/03/31 05:47:07;;;;;;;12.63;11.83;;;11.50;48.20;;;;;;5033786;28;20658;-77
2023/03/31 05:49:33;;;;;;;13.43;12.50;;;11.40;48.70;;;;;;5033705;28;20184;-77
2023/03/31 05:51:58;;;;;;;13.37;12.27;;;11.40;49.80;;;;;;5032869;28;20204;-76
2023/03/31 05:54:24;;;;;;;12.03;11.23;;;11.40;49.40;;;;;;5033334;28;20205;-77
2023/03/31 05:56:50;;;;;;;13.17;12.07;;;11.50;50.10;;;;;;5033182;28;20195;-76
2023/03/31 05:59:15;;;;;;;12.73;11.70;;;11.60;49.20;;;;;;5034336;28;20168;-77
2023/03/31 06:01:41;;;;;;;12.27;11.47;;;11.50;49.10;;;;;;5032866;28;20184;-76
2023/03/31 06:04:06;;;;;;;12.70;11.60;;;11.50;49.20;;;;;;5033777;28;20220;-76
2023/03/31 06:06:33;;;;;;;12.97;12.03;;;11.50;49.40;;;;;;5033647;28;20187;-76
2023/03/31 06:08:59;;;;;;;12.10;11.07;;;11.50;49.70;;;;;;5032357;28;20533;-76
2023/03/31 06:11:24;;;;;;;13.37;12.53;;;11.40;50.20;;;;;;5032929;28;20454;-76
2023/03/31 06:13:50;;;;;;;13.23;12.13;;;11.40;50.20;;;;;;5033273;28;20697;-76
2023/03/31 06:16:16;;;;;;;12.07;11.27;;;11.40;50.70;;;;;;5033461;28;20169;-74
2023/03/31 06:18:42;;;;;;;12.60;11.83;;;11.40;50.70;;;;;;5032424;28;20193;-75
2023/03/31 06:21:11;;;;;;;12.87;12.00;;;11.40;50.40;;;;;;5032350;28;20986;-75
2023/03/31 06:23:37;;;;;;;13.47;12.67;;;11.40;50.80;;;;;;5032934;28;20439;-76
2023/03/31 06:26:05;;;;;;;13.20;12.50;;;11.40;50.10;;;;;;5031541;28;20435;-75
2023/03/31 06:28:32;;;;;;;14.13;13.13;;;11.50;50.80;;;;;;5033328;28;20189;-76
2023/03/31 06:31:19;;;;;;;13.03;12.13;;;11.60;50.80;;;;;;5033696;28;20447;-77
2023/03/31 06:33:45;;;;;;;13.17;12.33;;;11.50;50.00;;;;;;5034976;22;20994;-49
2023/03/31 06:36:16;;;;;;;13.10;12.27;;;11.50;50.50;;;;;;5032245;28;20414;-48
2023/03/31 06:38:42;;;;;;;13.67;12.87;;;11.50;50.50;;;;;;5032577;28;20216;-50
2023/03/31 06:41:11;;;;;;;13.73;12.83;;;11.50;50.90;;;;;;5032045;28;20408;-52
2023/03/31 06:43:37;;;;;;;13.50;12.60;;;11.60;50.80;;;;;;5032232;28;20419;-56
2023/03/31 06:46:04;;;;;;;16.17;14.87;;;11.50;51.70;;;;;;5032091;28;20419;-53
2023/03/31 06:48:29;;;;;;;13.93;12.90;;;11.40;52.20;;;;;;5032308;28;20230;-49
2023/03/31 06:50:59;;;;;;;13.40;12.30;;;11.40;52.60;;;;;;5032111;28;20415;-52
2023/03/31 06:53:25;;;;;;;13.80;12.53;;;11.30;53.50;;;;;;5031853;28;20204;-52
2023/03/31 06:55:50;;;;;;;14.27;13.17;;;11.30;53.60;;;;;;5032024;28;20449;-50
2023/03/31 06:58:16;;;;;;;14.50;13.17;;;11.30;53.60;;;;;;5032296;28;20412;-49
2023/03/31 07:00:44;;;;;;;13.97;12.97;;;11.20;53.50;;;;;;5031984;28;20543;-54
2023/03/31 07:03:11;;;;;;;14.57;13.27;;;11.20;53.80;;;;;;5028522;28;20192;-53
2023/03/31 07:05:36;;;;;;;13.73;12.50;;;11.20;54.70;;;;;;5030012;28;20420;-50
2023/03/31 07:08:03;;;;;;;14.17;13.00;;;11.20;54.60;;;;;;5030950;28;20427;-51
2023/03/31 07:10:30;;;;;;;12.27;11.47;;;11.20;55.00;;;;;;5031131;28;20181;-48
2023/03/31 07:12:56;;;;;;;10.93;10.40;;;11.10;54.90;;;;;;5030361;28;20912;-51
2023/03/31 07:15:23;;;;;;;12.17;11.27;;;11.10;54.40;;;;;;5030887;28;20486;-49
2023/03/31 07:17:49;;;;;;;11.60;10.90;;;11.10;55.00;;;;;;5030806;28;20299;-49
2023/03/31 07:20:17;;;;;;;11.17;10.57;;;11.20;54.20;;;;;;5031380;28;20492;-48
2023/03/31 07:22:44;;;;;;;11.90;11.20;;;11.20;54.30;;;;;;5030804;28;20461;-48
2023/03/31 07:25:11;;;;;;;11.77;11.03;;;11.30;53.10;;;;;;5030831;28;20416;-49
2023/03/31 07:27:37;;;;;;;10.83;10.10;;;11.40;51.90;;;;;;5027942;28;20447;-48
2023/03/31 07:30:09;;;;;;;11.50;10.50;;;11.30;51.40;;;;;;5030771;28;20434;-51
2023/03/31 07:32:38;;;;;;;10.53;9.93;;;11.40;50.40;;;;;;5029982;28;20455;-49
2023/03/31 07:35:05;;;;;;;10.30;9.70;;;11.30;48.30;;;;;;5030588;28;20478;-50
2023/03/31 07:37:40;;;;;;;10.43;9.83;;;11.40;48.80;;;;;;5030840;28;20426;-49
2023/03/31 07:40:06;;;;;;;11.10;10.60;;;11.30;49.30;;;;;;5031146;28;20498;-52
2023/03/31 07:42:33;;;;;;;9.97;9.47;;;11.30;48.10;;;;;;5030553;28;20416;-51
2023/03/31 07:44:58;;;;;;;10.40;9.90;;;11.40;47.30;;;;;;5031130;28;20464;-49
2023/03/31 07:47:24;;;;;;;11.10;10.40;;;11.40;46.80;;;;;;5030981;28;20502;-48
2023/03/31 07:49:50;;;;;;;9.90;9.30;;;11.50;47.80;;;;;;5030912;28;20692;-49
2023/03/31 07:52:18;;;;;;;9.20;8.90;;;11.60;46.20;;;;;;5030357;28;20463;-48
2023/03/31 07:54:46;;;;;;;9.97;9.57;;;11.70;45.40;;;;;;5030735;28;20177;-50
2023/03/31 07:57:12;;;;;;;10.77;10.27;;;11.80;45.60;;;;;;5030605;28;20515;-50
2023/03/31 07:59:39;;;;;;;9.67;9.17;;;11.80;43.80;;;;;;5030110;28;20513;-53
2023/03/31 08:02:04;;;;;;;8.80;8.47;;;11.90;41.60;;;;;;5030010;28;20752;-50
2023/03/31 08:04:30;;;;;;;9.57;9.20;;;11.90;43.30;;;;;;5030455;28;20414;-50
2023/03/31 08:06:56;;;;;;;9.10;8.60;;;11.90;44.00;;;;;;5030643;28;20207;-48
2023/03/31 08:09:22;;;;;;;8.80;8.40;;;11.90;41.80;;;;;;5030463;28;20180;-51
2023/03/31 08:11:48;;;;;;;9.37;8.90;;;12.00;40.70;;;;;;5030177;28;20486;-49
2023/03/31 08:14:15;;;;;;;9.40;9.00;;;12.00;40.60;;;;;;5030465;28;20415;-53
2023/03/31 08:16:40;;;;;;;10.40;9.70;;;12.10;41.50;;;;;;5030298;28;20419;-49
2023/03/31 08:19:06;;;;;;;9.57;9.17;;;12.20;41.40;;;;;;5030408;28;20415;-50
2023/03/31 08:21:31;;;;;;;8.70;8.40;;;12.30;40.60;;;;;;5030053;28;20181;-54
2023/03/31 08:23:57;;;;;;;10.23;9.83;;;12.30;41.20;;;;;;5030407;28;20176;-52
2023/03/31 08:26:24;;;;;;;8.50;8.20;;;12.40;40.50;;;;;;5030382;28;20176;-54
2023/03/31 08:28:51;;;;;;;8.47;8.10;;;12.40;39.90;;;;;;5030201;28;20415;-50
2023/03/31 08:31:18;;;;;;;9.63;9.03;;;12.50;40.30;;;;;;5030022;28;20486;-53
2023/03/31 08:33:45;;;;;;;9.40;9.00;;;12.60;39.10;;;;;;5029339;28;20463;-51
2023/03/31 08:36:11;;;;;;;9.30;8.90;;;12.70;40.20;;;;;;5029870;28;20408;-49
2023/03/31 08:38:40;;;;;;;9.73;9.23;;;12.80;39.20;;;;;;5030285;28;20422;-54
2023/03/31 08:41:17;;;;;;;9.30;8.90;;;12.80;38.10;;;;;;5029847;28;20570;-53
2023/03/31 08:43:45;;;;;;;10.33;9.83;;;13.00;38.30;;;;;;5030247;28;20438;-51
2023/03/31 08:46:14;;;;;;;10.20;9.80;;;13.10;37.90;;;;;;5030289;28;20443;-50
2023/03/31 08:48:48;;;;;;;11.37;10.97;;;13.20;37.50;;;;;;5030072;28;20447;-50
2023/03/31 08:51:27;;;;;;;9.90;9.47;;;13.40;37.70;;;;;;5029755;28;20423;-48
2023/03/31 08:54:02;;;;;;;10.67;10.27;;;13.50;35.50;;;;;;5030082;28;20427;-49
2023/03/31 08:56:32;;;;;;;10.67;10.07;;;13.60;35.70;;;;;;5030060;28;20411;-49
2023/03/31 08:59:01;;;;;;;11.87;10.97;;;13.70;34.70;;;;;;5030173;28;20465;-50
2023/03/31 09:01:29;;;;;;;11.63;10.83;;;13.70;35.70;;;;;;5029942;28;20911;-53
2023/03/31 09:04:13;;;;;;;10.87;10.23;;;13.80;34.70;;;;;;5029689;28;20412;-50
2023/03/31 09:07:01;;;;;;;10.10;9.60;;;14.00;35.10;;;;;;5029947;28;20451;-50
2023/03/31 09:09:46;;;;;;;9.80;9.40;;;14.00;34.60;;;;;;5030226;28;20439;-52
2023/03/31 09:12:33;;;;;;;9.90;9.43;;;14.20;35.20;;;;;;5033042;28;20467;-46
2023/03/31 09:15:41;;;;;;;9.53;9.23;;;14.40;33.10;;;;;;5033923;28;20412;-46
2023/03/31 09:18:32;;;;;;;10.50;10.00;;;14.70;29.50;;;;;;5013163;28;20939;-46
2023/03/31 09:21:19;;;;;;;10.63;10.07;;;14.90;29.00;;;;;;5030487;28;20427;-49
2023/03/31 09:24:06;;;;;;;10.40;9.90;;;15.20;27.90;;;;;;5030344;28;20986;-49
2023/03/31 09:26:51;;;;;;;9.13;8.73;;;15.30;26.10;;;;;;5030374;28;20434;-46
2023/03/31 09:29:28;;;;;;;11.50;10.70;;;15.30;25.30;;;;;;5030363;28;20423;-49
2023/03/31 09:31:59;;;;;;;8.70;8.30;;;15.20;26.10;;;;;;5029515;28;20819;-50
2023/03/31 09:34:30;;;;;;;8.97;8.57;;;15.00;26.60;;;;;;5030171;28;20443;-50
2023/03/31 09:36:55;;;;;;;9.70;9.20;;;14.90;25.60;;;;;;5030077;28;20412;-48
2023/03/31 09:39:21;;;;;;;9.17;8.87;;;14.80;27.10;;;;;;5026243;28;20423;-50
2023/03/31 09:41:50;;;;;;;9.87;9.37;;;14.70;27.30;;;;;;5032676;28;20185;-51
2023/03/31 09:44:21;;;;;;;9.30;8.90;;;14.70;27.30;;;;;;5033364;28;20181;-49
2023/03/31 09:46:48;;;;;;;9.33;8.80;;;14.50;27.20;;;;;;5032997;28;20935;-50
2023/03/31 09:49:20;;;;;;;9.63;9.03;;;14.40;27.10;;;;;;5033263;28;20503;-54
2023/03/31 09:51:53;;;;;;;8.87;8.37;;;14.40;27.10;;;;;;5032551;28;20462;-53
2023/03/31 09:54:24;;;;;;;9.30;8.80;;;14.50;26.20;;;;;;5033240;28;20419;-54
2023/03/31 09:56:54;;;;;;;9.60;9.07;;;14.50;24.70;;;;;;5032992;28;20505;-54
2023/03/31 09:59:23;;;;;;;10.23;9.50;;;14.60;26.30;;;;;;5033039;28;20416;-52
2023/03/31 10:01:51;;;;;;;9.00;8.50;;;14.60;25.00;;;;;;5032244;28;20419;-52
2023/03/31 10:04:23;;;;;;;8.53;7.93;;;14.80;25.80;;;;;;5032986;28;20443;-54
2023/03/31 10:06:51;;;;;;;8.23;7.70;;;15.00;24.20;;;;;;5032699;28;20427;-54
2023/03/31 10:09:20;;;;;;;9.30;8.90;;;15.10;23.60;;;;;;5032785;28;20477;-52
2023/03/31 10:11:58;;;;;;;8.37;7.97;;;15.10;24.10;;;;;;5032088;28;20462;-53
2023/03/31 10:14:31;;;;;;;9.40;8.70;;;15.20;23.50;;;;;;5033393;28;20426;-53
2023/03/31 10:16:57;;;;;;;9.37;8.67;;;15.30;23.50;;;;;;5032787;28;20446;-52
2023/03/31 10:19:32;;;;;;;9.07;8.57;;;15.50;22.50;;;;;;5032741;28;20419;-49
2023/03/31 10:22:14;;;;;;;9.00;8.30;;;15.60;21.30;;;;;;5031382;28;20414;-53
2023/03/31 10:24:42;;;;;;;8.70;8.30;;;15.70;21.90;;;;;;5032283;28;20792;-54
2023/03/31 10:27:28;;;;;;;8.43;7.90;;;15.90;22.10;;;;;;5032613;28;20415;-51
2023/03/31 10:29:57;;;;;;;7.90;7.60;;;16.00;21.90;;;;;;5032410;28;20777;-51
2023/03/31 10:32:32;;;;;;;7.53;7.23;;;16.10;21.10;;;;;;5032069;28;20459;-50
2023/03/31 10:35:33;;;;;;;6.50;6.13;;;16.00;20.40;;;;;;5032146;28;20580;-49
2023/03/31 10:38:05;;;;;;;8.00;7.50;;;15.80;20.20;;;;;;5032120;28;20466;-52
2023/03/31 10:40:33;;;;;;;7.47;7.10;;;15.90;20.30;;;;;;5032103;28;20506;-50
2023/03/31 10:43:02;;;;;;;7.70;7.40;;;16.00;19.30;;;;;;5032731;28;20412;-52
2023/03/31 10:45:40;;;;;;;7.60;7.30;;;16.10;19.10;;;;;;5032371;28;20415;-52
2023/03/31 10:48:37;;;;;;;7.77;7.00;;;16.20;19.20;;;;;;5032034;28;20434;-52
2023/03/31 10:51:26;;;;;;;8.50;8.00;;;16.20;18.70;;;;;;5031746;28;20415;-52
2023/03/31 10:53:54;;;;;;;7.87;7.43;;;16.20;19.10;;;;;;5031711;28;20454;-51
2023/03/31 10:56:36;;;;;;;7.87;6.70;;;16.10;18.60;;;;;;5031999;28;20408;-50
2023/03/31 10:59:09;;;;;;;7.93;7.13;;;16.10;18.90;;;;;;5032055;28;20778;-54
2023/03/31 11:02:06;;;;;;;7.73;7.43;;;16.10;19.00;;;;;;5031305;28;20857;-54
2023/03/31 11:04:55;;;;;;;7.17;6.77;;;16.10;18.40;;;;;;5003581;28;20499;-49
2023/03/31 11:08:06;;;;;;;6.33;6.00;;;16.10;18.00;;;;;;5031894;28;20913;-51
2023/03/31 11:11:05;;;;;;;6.43;6.23;;;16.00;18.70;;;;;;5008564;28;20420;-48
2023/03/31 11:13:40;;;;;;;7.20;6.70;;;15.90;18.90;;;;;;5030497;28;20509;-53
2023/03/31 11:16:45;;;;;;;8.50;7.80;;;15.90;18.90;;;;;;5031909;28;20407;-51
2023/03/31 11:19:36;;;;;;;9.23;7.93;;;15.80;21.20;;;;;;5030535;28;20419;-56
2023/03/31 11:22:21;;;;;;;7.33;6.93;;;15.50;22.50;;;;;;5031257;28;20423;-56
2023/03/31 11:25:05;;;;;;;8.57;7.97;;;15.20;26.70;;;;;;5031556;28;20419;-55
2023/03/31 11:28:08;;;;;;;9.50;9.10;;;14.40;30.00;;;;;;5031507;28;20423;-55
2023/03/31 11:30:57;;;;;;;9.20;8.87;;;13.40;34.50;;;;;;5031496;28;20425;-55
2023/03/31 11:33:39;;;;;;;8.90;8.60;;;12.30;33.90;;;;;;5028358;28;20459;-51
2023/03/31 11:36:11;;;;;;;8.17;7.90;;;11.90;36.10;;;;;;5048017;28;20450;-49
2023/03/31 11:38:49;;;;;;;8.73;8.33;;;11.70;37.40;;;;;;5047332;28;21014;-51
2023/03/31 11:41:35;;;;;;;8.23;7.83;;;11.50;37.60;;;;;;5047441;28;20873;-49
2023/03/31 11:44:04;;;;;;;8.50;8.10;;;11.40;39.30;;;;;;5031317;28;20415;-49
2023/03/31 11:46:49;;;;;;;8.33;7.83;;;11.40;39.00;;;;;;5031135;28;20449;-48
2023/03/31 11:49:37;;;;;;;8.03;7.73;;;11.30;36.80;;;;;;5031246;28;20415;-50
2023/03/31 11:52:12;;;;;;;7.40;7.20;;;11.30;37.90;;;;;;5030510;28;20529;-52
2023/03/31 11:55:02;;;;;;;7.90;7.60;;;11.30;38.80;;;;;;5047621;28;20454;-49
2023/03/31 11:57:40;;;;;;;8.57;8.17;;;11.30;37.50;;;;;;5031221;28;20561;-50
2023/03/31 12:00:24;;;;;;;8.57;8.27;;;11.30;37.80;;;;;;5031094;28;20820;-54
2023/03/31 12:02:56;;;;;;;7.20;6.90;;;11.20;37.40;;;;;;5030468;28;20467;-50
2023/03/31 12:05:25;;;;;;;7.30;7.10;;;11.30;38.40;;;;;;5047483;28;20915;-49
2023/03/31 12:08:12;;;;;;;8.20;7.90;;;11.40;36.60;;;;;;5030150;28;20451;-53
2023/03/31 12:10:44;;;;;;;8.47;8.07;;;11.60;39.00;;;;;;5030846;28;20929;-48
2023/03/31 12:13:31;;;;;;;7.63;7.43;;;11.80;36.00;;;;;;5030283;28;20482;-51
2023/03/31 12:16:42;;;;;;;7.10;6.70;;;12.10;33.30;;;;;;5011068;28;20413;-51
2023/03/31 12:19:21;;;;;;;7.83;7.53;;;12.40;33.80;;;;;;4989345;28;20444;-51
2023/03/31 12:22:04;;;;;;;8.07;7.40;;;12.50;32.20;;;;;;5010254;28;20439;-52
2023/03/31 12:24:32;;;;;;;8.30;8.00;;;12.60;31.60;;;;;;5024782;28;20431;-49
2023/03/31 12:27:14;;;;;;;8.37;7.93;;;12.70;29.90;;;;;;5030180;28;20767;-48
2023/03/31 12:29:44;;;;;;;8.00;7.70;;;12.80;29.90;;;;;;5028111;28;20954;-52
2023/03/31 12:32:23;;;;;;;8.40;8.00;;;12.90;28.60;;;;;;5029422;28;20509;-50
2023/03/31 12:35:21;;;;;;;8.23;7.83;;;13.10;28.40;;;;;;5027295;28;20431;-49
2023/03/31 12:38:10;;;;;;;7.37;6.97;;;13.20;28.70;;;;;;5029282;28;20408;-53
2023/03/31 12:40:41;;;;;;;7.90;7.60;;;13.40;28.60;;;;;;5028108;28;20407;-48
2023/03/31 12:43:41;;;;;;;7.33;7.07;;;13.60;27.40;;;;;;5030009;28;20760;-51
2023/03/31 12:46:22;;;;;;;8.43;8.03;;;13.80;28.50;;;;;;5034260;28;20411;-52
2023/03/31 12:48:57;;;;;;;8.10;7.80;;;13.70;26.80;;;;;;5034438;28;20509;-50
2023/03/31 12:51:47;;;;;;;8.63;8.33;;;13.90;27.20;;;;;;5033425;28;20414;-49
2023/03/31 12:54:21;;;;;;;8.00;7.80;;;13.90;26.40;;;;;;5034351;28;20434;-52
2023/03/31 12:57:00;;;;;;;8.30;7.80;;;14.00;27.80;;;;;;5034212;28;20421;-50
2023/03/31 12:59:37;;;;;;;7.83;7.53;;;14.20;26.40;;;;;;5033911;28;20426;-52
2023/03/31 13:02:09;;;;;;;8.40;7.60;;;14.30;24.50;;;;;;5033710;28;20418;-55
2023/03/31 13:04:36;;;;;;;8.50;7.90;;;14.40;24.50;;;;;;5034171;28;20759;-53
2023/03/31 13:07:03;;;;;;;7.30;7.00;;;14.30;25.60;;;;;;5033735;28;20403;-56